Moon River — PE2053 — position and weather

sailwx.info

Track history (hours):
 
Tides and Currents Weather Stations Pressure Air Temp Water Temp Dewpoint Dewpoint Depression Visibility Wind Speed Wind Dir Waves Ship Positions

Moon River

Last reported at 2017-Apr-08 14:47 UTC. Time now 2017-May-25 14:25 UTC.
Position N 43°34' E 007°10'.
Warning: this ship's position is 46 days out of date.

Length 24 m.

Type: Pleasure craft. MMSI: 244010895.

Date/timePositionNaut miles runAvg speedWind from/ knotsBaromVisibWave heightAir tempDewpointWater temp
2017-Apr-08 14:47N 43°34' E 007°10'8 9.5
2017-Apr-08 13:59N 43°40' E 007°17'13 0.5
2017-Apr-07 13:49N 43°31' E 007°04'1 2.7
2017-Apr-07 13:28N 43°31' E 007°02'0 0.0
2017-Apr-07 12:55N 43°31' E 007°02'0 0.0
2017-Apr-07 12:30N 43°31' E 007°02'0 0.0
2017-Apr-07 12:00N 43°31' E 007°02'0 0.0
2017-Apr-07 11:27N 43°31' E 007°02'2 4.7
2017-Apr-07 10:58N 43°33' E 007°02'2 1.1
2017-Apr-07 09:29N 43°31' E 007°03'0 0.0
2017-Apr-07 08:56N 43°31' E 007°03'0 0.0
2017-Apr-07 08:26N 43°31' E 007°03'1 1.4
2017-Apr-07 08:00N 43°32' E 007°04'  
Track history (hours):
 
Tides and Currents Weather Stations Pressure Air Temp Water Temp Dewpoint Dewpoint Depression Visibility Wind Speed Wind Dir Waves Ship Positions

Moon River

Last reported at 2017-Apr-08 14:47 UTC. Time now 2017-May-25 14:25 UTC.
Position N 43°34' E 007°10'.
Warning: this ship's position is 46 days out of date.

Length 24 m.

Type: Pleasure craft. MMSI: 244010895.

Date/timePositionNaut miles runAvg speedWind from/ knotsBaromVisibWave heightAir tempDewpointWater temp
2017-Apr-08 14:47N 43°34' E 007°10'8 9.5
2017-Apr-08 13:59N 43°40' E 007°17'13 0.5
2017-Apr-07 13:49N 43°31' E 007°04'1 2.7
2017-Apr-07 13:28N 43°31' E 007°02'0 0.0
2017-Apr-07 12:55N 43°31' E 007°02'0 0.0
2017-Apr-07 12:30N 43°31' E 007°02'0 0.0
2017-Apr-07 12:00N 43°31' E 007°02'0 0.0
2017-Apr-07 11:27N 43°31' E 007°02'2 4.7
2017-Apr-07 10:58N 43°33' E 007°02'2 1.1
2017-Apr-07 09:29N 43°31' E 007°03'0 0.0
2017-Apr-07 08:56N 43°31' E 007°03'0 0.0
2017-Apr-07 08:26N 43°31' E 007°03'1 1.4
2017-Apr-07 08:00N 43°32' E 007°04'  

Dump ship's entire track history